sensor_id;sensor_type;location;lat;lon;timestamp;P1;durP1;ratioP1;P2;durP2;ratioP2
77591;SDS011;66891;46.884;17.436;2024-02-26T00:01:04;20.50;;;7.80;;
77591;SDS011;66891;46.884;17.436;2024-02-26T00:03:31;20.48;;;8.07;;
77591;SDS011;66891;46.884;17.436;2024-02-26T00:06:02;20.02;;;7.47;;
77591;SDS011;66891;46.884;17.436;2024-02-26T00:08:31;20.02;;;8.07;;
77591;SDS011;66891;46.884;17.436;2024-02-26T00:10:57;20.60;;;7.60;;
77591;SDS011;66891;46.884;17.436;2024-02-26T00:13:25;22.27;;;8.77;;
77591;SDS011;66891;46.884;17.436;2024-02-26T00:15:52;21.15;;;8.27;;
77591;SDS011;66891;46.884;17.436;2024-02-26T00:18:20;18.13;;;7.68;;
77591;SDS011;66891;46.884;17.436;2024-02-26T00:20:47;19.38;;;8.25;;
77591;SDS011;66891;46.884;17.436;2024-02-26T00:23:14;20.53;;;7.93;;
77591;SDS011;66891;46.884;17.436;2024-02-26T00:25:43;21.65;;;7.93;;
77591;SDS011;66891;46.884;17.436;2024-02-26T00:28:10;20.85;;;8.35;;
77591;SDS011;66891;46.884;17.436;2024-02-26T00:30:37;23.05;;;8.38;;
77591;SDS011;66891;46.884;17.436;2024-02-26T00:33:04;20.33;;;8.38;;
77591;SDS011;66891;46.884;17.436;2024-02-26T00:35:31;22.13;;;8.30;;
77591;SDS011;66891;46.884;17.436;2024-02-26T00:37:58;19.75;;;8.10;;
77591;SDS011;66891;46.884;17.436;2024-02-26T00:40:25;20.70;;;7.88;;
77591;SDS011;66891;46.884;17.436;2024-02-26T00:42:53;19.80;;;7.85;;
77591;SDS011;66891;46.884;17.436;2024-02-26T00:45:20;21.48;;;8.35;;
77591;SDS011;66891;46.884;17.436;2024-02-26T00:47:47;22.13;;;8.47;;
77591;SDS011;66891;46.884;17.436;2024-02-26T00:50:15;22.45;;;8.43;;
77591;SDS011;66891;46.884;17.436;2024-02-26T00:52:42;19.52;;;7.78;;
77591;SDS011;66891;46.884;17.436;2024-02-26T00:55:09;20.17;;;8.20;;
77591;SDS011;66891;46.884;17.436;2024-02-26T00:57:36;19.02;;;7.68;;
77591;SDS011;66891;46.884;17.436;2024-02-26T01:00:05;21.93;;;7.97;;
77591;SDS011;66891;46.884;17.436;2024-02-26T01:02:35;21.42;;;8.57;;
77591;SDS011;66891;46.884;17.436;2024-02-26T01:05:03;24.40;;;9.48;;
77591;SDS011;66891;46.884;17.436;2024-02-26T01:07:30;25.08;;;11.43;;
77591;SDS011;66891;46.884;17.436;2024-02-26T01:10:02;29.55;;;13.30;;
77591;SDS011;66891;46.884;17.436;2024-02-26T01:12:29;32.10;;;14.00;;
77591;SDS011;66891;46.884;17.436;2024-02-26T01:14:56;33.65;;;14.23;;
77591;SDS011;66891;46.884;17.436;2024-02-26T01:17:25;28.98;;;12.77;;
77591;SDS011;66891;46.884;17.436;2024-02-26T01:19:52;27.65;;;12.15;;
77591;SDS011;66891;46.884;17.436;2024-02-26T01:22:20;25.80;;;10.95;;
77591;SDS011;66891;46.884;17.436;2024-02-26T01:24:47;22.77;;;9.87;;
77591;SDS011;66891;46.884;17.436;2024-02-26T01:27:14;21.52;;;8.40;;
77591;SDS011;66891;46.884;17.436;2024-02-26T01:29:42;19.45;;;7.95;;
77591;SDS011;66891;46.884;17.436;2024-02-26T01:32:09;20.23;;;8.10;;
77591;SDS011;66891;46.884;17.436;2024-02-26T01:34:38;18.80;;;8.25;;
77591;SDS011;66891;46.884;17.436;2024-02-26T01:37:05;19.47;;;8.23;;
77591;SDS011;66891;46.884;17.436;2024-02-26T01:39:32;19.95;;;8.40;;
77591;SDS011;66891;46.884;17.436;2024-02-26T01:41:59;18.50;;;7.88;;
77591;SDS011;66891;46.884;17.436;2024-02-26T01:44:26;18.67;;;7.88;;
77591;SDS011;66891;46.884;17.436;2024-02-26T01:46:53;19.98;;;7.43;;
77591;SDS011;66891;46.884;17.436;2024-02-26T01:49:20;18.57;;;7.50;;
77591;SDS011;66891;46.884;17.436;2024-02-26T01:51:50;18.52;;;7.25;;
77591;SDS011;66891;46.884;17.436;2024-02-26T01:54:17;16.95;;;6.68;;
77591;SDS011;66891;46.884;17.436;2024-02-26T01:56:44;16.48;;;7.18;;
77591;SDS011;66891;46.884;17.436;2024-02-26T01:59:11;19.10;;;7.38;;
77591;SDS011;66891;46.884;17.436;2024-02-26T02:01:38;16.73;;;7.00;;
77591;SDS011;66891;46.884;17.436;2024-02-26T02:04:07;18.00;;;6.50;;
77591;SDS011;66891;46.884;17.436;2024-02-26T02:06:35;18.73;;;7.25;;
77591;SDS011;66891;46.884;17.436;2024-02-26T02:09:04;18.20;;;6.72;;
77591;SDS011;66891;46.884;17.436;2024-02-26T02:11:33;17.52;;;7.13;;
77591;SDS011;66891;46.884;17.436;2024-02-26T02:14:00;21.43;;;7.77;;
77591;SDS011;66891;46.884;17.436;2024-02-26T02:16:28;19.13;;;6.95;;
77591;SDS011;66891;46.884;17.436;2024-02-26T02:18:54;16.63;;;6.82;;
77591;SDS011;66891;46.884;17.436;2024-02-26T02:21:23;17.60;;;6.78;;
77591;SDS011;66891;46.884;17.436;2024-02-26T02:23:50;18.00;;;7.10;;
77591;SDS011;66891;46.884;17.436;2024-02-26T02:26:17;18.17;;;7.50;;
77591;SDS011;66891;46.884;17.436;2024-02-26T02:28:44;19.48;;;7.10;;
77591;SDS011;66891;46.884;17.436;2024-02-26T02:31:12;16.58;;;7.25;;
77591;SDS011;66891;46.884;17.436;2024-02-26T02:33:39;18.55;;;7.63;;
77591;SDS011;66891;46.884;17.436;2024-02-26T02:36:06;19.33;;;7.47;;
77591;SDS011;66891;46.884;17.436;2024-02-26T02:38:38;19.17;;;6.87;;
77591;SDS011;66891;46.884;17.436;2024-02-26T02:41:15;18.98;;;7.88;;
77591;SDS011;66891;46.884;17.436;2024-02-26T02:43:42;19.65;;;7.55;;
77591;SDS011;66891;46.884;17.436;2024-02-26T02:46:09;17.23;;;6.97;;
77591;SDS011;66891;46.884;17.436;2024-02-26T02:48:38;18.15;;;7.25;;
77591;SDS011;66891;46.884;17.436;2024-02-26T02:51:05;16.23;;;6.93;;
77591;SDS011;66891;46.884;17.436;2024-02-26T02:53:32;16.83;;;6.93;;
77591;SDS011;66891;46.884;17.436;2024-02-26T02:56:01;18.30;;;6.97;;
77591;SDS011;66891;46.884;17.436;2024-02-26T02:58:27;18.30;;;7.82;;
77591;SDS011;66891;46.884;17.436;2024-02-26T03:00:54;18.95;;;6.70;;
77591;SDS011;66891;46.884;17.436;2024-02-26T03:03:22;18.13;;;7.27;;
77591;SDS011;66891;46.884;17.436;2024-02-26T03:05:51;16.42;;;6.28;;
77591;SDS011;66891;46.884;17.436;2024-02-26T03:08:18;17.48;;;6.60;;
77591;SDS011;66891;46.884;17.436;2024-02-26T03:10:46;19.20;;;7.03;;
77591;SDS011;66891;46.884;17.436;2024-02-26T03:13:14;17.35;;;6.80;;
77591;SDS011;66891;46.884;17.436;2024-02-26T03:15:42;16.10;;;6.90;;
77591;SDS011;66891;46.884;17.436;2024-02-26T03:18:09;17.40;;;6.35;;
77591;SDS011;66891;46.884;17.436;2024-02-26T03:20:36;16.52;;;6.30;;
77591;SDS011;66891;46.884;17.436;2024-02-26T03:23:04;20.42;;;7.28;;
77591;SDS011;66891;46.884;17.436;2024-02-26T03:25:31;18.83;;;7.35;;
77591;SDS011;66891;46.884;17.436;2024-02-26T03:27:58;27.20;;;10.27;;
77591;SDS011;66891;46.884;17.436;2024-02-26T03:30:26;29.73;;;11.55;;
77591;SDS011;66891;46.884;17.436;2024-02-26T03:32:54;32.03;;;12.27;;
77591;SDS011;66891;46.884;17.436;2024-02-26T03:35:21;25.48;;;9.85;;
77591;SDS011;66891;46.884;17.436;2024-02-26T03:37:48;23.77;;;9.27;;
77591;SDS011;66891;46.884;17.436;2024-02-26T03:40:17;19.70;;;7.13;;
77591;SDS011;66891;46.884;17.436;2024-02-26T03:42:45;18.95;;;7.25;;
77591;SDS011;66891;46.884;17.436;2024-02-26T03:45:13;18.35;;;7.38;;
77591;SDS011;66891;46.884;17.436;2024-02-26T03:47:41;18.48;;;7.10;;
77591;SDS011;66891;46.884;17.436;2024-02-26T03:50:09;17.77;;;7.03;;
77591;SDS011;66891;46.884;17.436;2024-02-26T03:52:36;15.90;;;7.03;;
77591;SDS011;66891;46.884;17.436;2024-02-26T03:55:03;16.63;;;7.13;;
77591;SDS011;66891;46.884;17.436;2024-02-26T03:57:30;16.20;;;7.25;;
77591;SDS011;66891;46.884;17.436;2024-02-26T03:59:57;17.98;;;6.43;;
77591;SDS011;66891;46.884;17.436;2024-02-26T04:02:25;16.23;;;6.15;;
77591;SDS011;66891;46.884;17.436;2024-02-26T04:04:53;16.10;;;6.57;;
77591;SDS011;66891;46.884;17.436;2024-02-26T04:07:20;18.27;;;6.38;;
77591;SDS011;66891;46.884;17.436;2024-02-26T04:09:47;17.90;;;6.85;;
77591;SDS011;66891;46.884;17.436;2024-02-26T04:12:14;17.75;;;6.93;;
77591;SDS011;66891;46.884;17.436;2024-02-26T04:14:41;17.83;;;6.85;;
77591;SDS011;66891;46.884;17.436;2024-02-26T04:17:08;15.67;;;6.53;;
77591;SDS011;66891;46.884;17.436;2024-02-26T04:19:35;18.13;;;6.32;;
77591;SDS011;66891;46.884;17.436;2024-02-26T04:22:04;16.75;;;6.45;;
77591;SDS011;66891;46.884;17.436;2024-02-26T04:24:32;17.50;;;6.22;;
77591;SDS011;66891;46.884;17.436;2024-02-26T04:26:58;16.05;;;6.70;;
77591;SDS011;66891;46.884;17.436;2024-02-26T04:29:25;15.97;;;6.33;;
77591;SDS011;66891;46.884;17.436;2024-02-26T04:31:53;15.05;;;6.78;;
77591;SDS011;66891;46.884;17.436;2024-02-26T04:34:20;15.27;;;5.55;;
77591;SDS011;66891;46.884;17.436;2024-02-26T04:36:47;15.85;;;6.40;;
77591;SDS011;66891;46.884;17.436;2024-02-26T04:39:16;16.65;;;6.00;;
77591;SDS011;66891;46.884;17.436;2024-02-26T04:41:43;16.20;;;6.30;;
77591;SDS011;66891;46.884;17.436;2024-02-26T04:44:10;15.05;;;6.07;;
77591;SDS011;66891;46.884;17.436;2024-02-26T04:46:37;17.88;;;6.55;;
77591;SDS011;66891;46.884;17.436;2024-02-26T04:49:05;16.98;;;6.03;;
77591;SDS011;66891;46.884;17.436;2024-02-26T04:51:32;15.05;;;5.78;;
77591;SDS011;66891;46.884;17.436;2024-02-26T04:53:59;16.37;;;6.03;;
77591;SDS011;66891;46.884;17.436;2024-02-26T04:56:28;16.33;;;5.43;;
77591;SDS011;66891;46.884;17.436;2024-02-26T04:58:55;13.88;;;5.43;;
77591;SDS011;66891;46.884;17.436;2024-02-26T05:01:22;14.82;;;5.68;;
77591;SDS011;66891;46.884;17.436;2024-02-26T05:03:49;15.95;;;6.10;;
77591;SDS011;66891;46.884;17.436;2024-02-26T05:06:16;15.53;;;5.73;;
77591;SDS011;66891;46.884;17.436;2024-02-26T05:08:43;15.95;;;6.47;;
77591;SDS011;66891;46.884;17.436;2024-02-26T05:11:10;17.95;;;6.15;;
77591;SDS011;66891;46.884;17.436;2024-02-26T05:13:40;15.02;;;5.00;;
77591;SDS011;66891;46.884;17.436;2024-02-26T05:16:08;15.23;;;5.72;;
77591;SDS011;66891;46.884;17.436;2024-02-26T05:18:35;16.47;;;5.70;;
77591;SDS011;66891;46.884;17.436;2024-02-26T05:21:02;14.93;;;5.70;;
77591;SDS011;66891;46.884;17.436;2024-02-26T05:23:30;15.35;;;5.80;;
77591;SDS011;66891;46.884;17.436;2024-02-26T05:25:57;15.02;;;5.75;;
77591;SDS011;66891;46.884;17.436;2024-02-26T05:28:24;16.33;;;5.88;;
77591;SDS011;66891;46.884;17.436;2024-02-26T05:30:52;15.93;;;6.50;;
77591;SDS011;66891;46.884;17.436;2024-02-26T05:33:19;15.38;;;6.80;;
77591;SDS011;66891;46.884;17.436;2024-02-26T05:35:46;19.00;;;6.90;;
77591;SDS011;66891;46.884;17.436;2024-02-26T05:38:13;20.38;;;8.30;;
77591;SDS011;66891;46.884;17.436;2024-02-26T05:40:40;21.50;;;9.88;;
77591;SDS011;66891;46.884;17.436;2024-02-26T05:43:07;25.93;;;11.93;;
77591;SDS011;66891;46.884;17.436;2024-02-26T05:45:34;30.70;;;15.30;;
77591;SDS011;66891;46.884;17.436;2024-02-26T05:48:03;39.95;;;19.63;;
77591;SDS011;66891;46.884;17.436;2024-02-26T05:50:30;34.97;;;16.90;;
77591;SDS011;66891;46.884;17.436;2024-02-26T05:52:57;40.88;;;20.45;;
77591;SDS011;66891;46.884;17.436;2024-02-26T05:55:24;20.90;;;8.70;;
77591;SDS011;66891;46.884;17.436;2024-02-26T05:57:51;20.52;;;8.32;;
77591;SDS011;66891;46.884;17.436;2024-02-26T06:00:18;19.50;;;7.88;;
77591;SDS011;66891;46.884;17.436;2024-02-26T06:02:45;17.77;;;7.38;;
77591;SDS011;66891;46.884;17.436;2024-02-26T06:05:14;17.35;;;7.35;;
77591;SDS011;66891;46.884;17.436;2024-02-26T06:07:41;16.80;;;7.37;;
77591;SDS011;66891;46.884;17.436;2024-02-26T06:10:11;19.67;;;7.82;;
77591;SDS011;66891;46.884;17.436;2024-02-26T06:12:40;18.50;;;7.82;;
77591;SDS011;66891;46.884;17.436;2024-02-26T06:15:07;18.13;;;7.82;;
77591;SDS011;66891;46.884;17.436;2024-02-26T06:17:36;20.45;;;8.02;;
77591;SDS011;66891;46.884;17.436;2024-02-26T06:20:03;21.50;;;7.90;;
77591;SDS011;66891;46.884;17.436;2024-02-26T06:22:35;21.10;;;7.80;;
77591;SDS011;66891;46.884;17.436;2024-02-26T06:25:02;16.83;;;6.70;;
77591;SDS011;66891;46.884;17.436;2024-02-26T06:27:29;18.20;;;7.32;;
77591;SDS011;66891;46.884;17.436;2024-02-26T06:29:56;18.92;;;7.45;;
77591;SDS011;66891;46.884;17.436;2024-02-26T06:32:23;19.17;;;8.30;;
77591;SDS011;66891;46.884;17.436;2024-02-26T06:34:50;17.77;;;7.18;;
77591;SDS011;66891;46.884;17.436;2024-02-26T06:37:17;18.60;;;7.93;;
77591;SDS011;66891;46.884;17.436;2024-02-26T06:39:46;19.80;;;8.02;;
77591;SDS011;66891;46.884;17.436;2024-02-26T06:42:16;19.73;;;8.38;;
77591;SDS011;66891;46.884;17.436;2024-02-26T06:44:43;19.90;;;7.40;;
77591;SDS011;66891;46.884;17.436;2024-02-26T06:47:10;16.60;;;7.65;;
77591;SDS011;66891;46.884;17.436;2024-02-26T06:49:38;18.25;;;8.15;;
77591;SDS011;66891;46.884;17.436;2024-02-26T06:52:05;17.13;;;8.48;;
77591;SDS011;66891;46.884;17.436;2024-02-26T06:54:33;18.65;;;8.88;;
77591;SDS011;66891;46.884;17.436;2024-02-26T06:57:06;18.27;;;8.17;;
77591;SDS011;66891;46.884;17.436;2024-02-26T06:59:35;19.45;;;8.55;;
77591;SDS011;66891;46.884;17.436;2024-02-26T07:02:02;25.38;;;9.13;;
77591;SDS011;66891;46.884;17.436;2024-02-26T07:04:29;19.75;;;9.10;;
77591;SDS011;66891;46.884;17.436;2024-02-26T07:07:02;20.23;;;9.20;;
77591;SDS011;66891;46.884;17.436;2024-02-26T07:09:37;21.10;;;10.33;;
77591;SDS011;66891;46.884;17.436;2024-02-26T07:12:05;21.08;;;9.50;;
77591;SDS011;66891;46.884;17.436;2024-02-26T07:14:33;17.38;;;7.68;;
77591;SDS011;66891;46.884;17.436;2024-02-26T07:17:00;15.32;;;5.93;;
77591;SDS011;66891;46.884;17.436;2024-02-26T07:19:27;15.20;;;6.28;;
77591;SDS011;66891;46.884;17.436;2024-02-26T07:21:54;14.33;;;6.37;;
77591;SDS011;66891;46.884;17.436;2024-02-26T07:24:22;14.57;;;6.03;;
77591;SDS011;66891;46.884;17.436;2024-02-26T07:26:50;16.33;;;7.03;;
77591;SDS011;66891;46.884;17.436;2024-02-26T07:29:18;14.73;;;6.03;;
77591;SDS011;66891;46.884;17.436;2024-02-26T07:31:45;14.95;;;6.70;;
77591;SDS011;66891;46.884;17.436;2024-02-26T07:34:12;17.37;;;7.57;;
77591;SDS011;66891;46.884;17.436;2024-02-26T07:36:39;17.52;;;7.70;;
77591;SDS011;66891;46.884;17.436;2024-02-26T07:39:06;17.38;;;7.22;;
77591;SDS011;66891;46.884;17.436;2024-02-26T07:41:33;13.65;;;5.90;;
77591;SDS011;66891;46.884;17.436;2024-02-26T07:44:00;13.80;;;6.00;;
77591;SDS011;66891;46.884;17.436;2024-02-26T07:46:29;13.63;;;6.00;;
77591;SDS011;66891;46.884;17.436;2024-02-26T07:48:57;14.57;;;6.20;;
77591;SDS011;66891;46.884;17.436;2024-02-26T07:51:24;14.48;;;5.78;;
77591;SDS011;66891;46.884;17.436;2024-02-26T07:53:52;14.48;;;5.82;;
77591;SDS011;66891;46.884;17.436;2024-02-26T07:56:19;13.10;;;5.40;;
77591;SDS011;66891;46.884;17.436;2024-02-26T07:58:48;14.03;;;5.60;;
77591;SDS011;66891;46.884;17.436;2024-02-26T08:01:15;13.52;;;6.13;;
77591;SDS011;66891;46.884;17.436;2024-02-26T08:03:44;15.10;;;5.65;;
77591;SDS011;66891;46.884;17.436;2024-02-26T08:06:11;14.68;;;6.15;;
77591;SDS011;66891;46.884;17.436;2024-02-26T08:08:40;12.30;;;5.45;;
77591;SDS011;66891;46.884;17.436;2024-02-26T08:11:08;13.67;;;5.10;;
77591;SDS011;66891;46.884;17.436;2024-02-26T08:13:35;12.82;;;4.90;;
77591;SDS011;66891;46.884;17.436;2024-02-26T08:16:02;11.93;;;5.45;;
77591;SDS011;66891;46.884;17.436;2024-02-26T08:18:30;12.05;;;4.90;;
77591;SDS011;66891;46.884;17.436;2024-02-26T08:20:58;13.68;;;5.22;;
77591;SDS011;66891;46.884;17.436;2024-02-26T08:23:25;12.80;;;5.30;;
77591;SDS011;66891;46.884;17.436;2024-02-26T08:25:53;12.93;;;5.13;;
77591;SDS011;66891;46.884;17.436;2024-02-26T08:28:19;13.02;;;4.93;;
77591;SDS011;66891;46.884;17.436;2024-02-26T08:30:46;15.93;;;5.95;;
77591;SDS011;66891;46.884;17.436;2024-02-26T08:33:13;11.85;;;5.18;;
77591;SDS011;66891;46.884;17.436;2024-02-26T08:35:41;13.63;;;5.60;;
77591;SDS011;66891;46.884;17.436;2024-02-26T08:38:09;12.52;;;5.38;;
77591;SDS011;66891;46.884;17.436;2024-02-26T08:40:36;12.70;;;4.82;;
77591;SDS011;66891;46.884;17.436;2024-02-26T08:43:16;13.75;;;5.25;;
77591;SDS011;66891;46.884;17.436;2024-02-26T08:45:45;11.77;;;5.22;;
77591;SDS011;66891;46.884;17.436;2024-02-26T08:48:12;14.13;;;5.57;;
77591;SDS011;66891;46.884;17.436;2024-02-26T08:50:41;12.50;;;5.40;;
77591;SDS011;66891;46.884;17.436;2024-02-26T08:53:09;12.88;;;5.05;;
77591;SDS011;66891;46.884;17.436;2024-02-26T08:55:36;14.05;;;4.82;;
77591;SDS011;66891;46.884;17.436;2024-02-26T08:58:03;10.45;;;4.28;;
77591;SDS011;66891;46.884;17.436;2024-02-26T09:00:30;12.73;;;5.07;;
77591;SDS011;66891;46.884;17.436;2024-02-26T09:02:58;13.27;;;5.32;;
77591;SDS011;66891;46.884;17.436;2024-02-26T09:05:29;15.57;;;5.57;;
77591;SDS011;66891;46.884;17.436;2024-02-26T09:07:56;12.98;;;4.90;;
77591;SDS011;66891;46.884;17.436;2024-02-26T09:10:24;14.02;;;6.32;;
77591;SDS011;66891;46.884;17.436;2024-02-26T09:12:51;11.10;;;4.53;;
77591;SDS011;66891;46.884;17.436;2024-02-26T09:15:18;13.02;;;4.82;;
77591;SDS011;66891;46.884;17.436;2024-02-26T09:17:45;11.20;;;4.90;;
77591;SDS011;66891;46.884;17.436;2024-02-26T09:20:13;11.65;;;4.80;;
77591;SDS011;66891;46.884;17.436;2024-02-26T09:22:41;12.05;;;4.43;;
77591;SDS011;66891;46.884;17.436;2024-02-26T09:25:09;11.73;;;4.60;;
77591;SDS011;66891;46.884;17.436;2024-02-26T09:27:37;12.02;;;4.68;;
77591;SDS011;66891;46.884;17.436;2024-02-26T09:30:09;11.00;;;3.78;;
77591;SDS011;66891;46.884;17.436;2024-02-26T09:32:37;10.15;;;3.60;;
77591;SDS011;66891;46.884;17.436;2024-02-26T09:35:04;11.35;;;3.58;;
77591;SDS011;66891;46.884;17.436;2024-02-26T09:37:31;8.73;;;2.90;;
77591;SDS011;66891;46.884;17.436;2024-02-26T09:39:59;10.65;;;3.47;;
77591;SDS011;66891;46.884;17.436;2024-02-26T09:42:26;9.95;;;3.35;;
77591;SDS011;66891;46.884;17.436;2024-02-26T09:44:55;9.43;;;2.78;;
77591;SDS011;66891;46.884;17.436;2024-02-26T09:47:24;9.10;;;3.10;;
77591;SDS011;66891;46.884;17.436;2024-02-26T09:49:54;8.43;;;3.10;;
77591;SDS011;66891;46.884;17.436;2024-02-26T09:52:23;9.85;;;3.20;;
77591;SDS011;66891;46.884;17.436;2024-02-26T09:54:50;9.95;;;3.03;;
77591;SDS011;66891;46.884;17.436;2024-02-26T09:57:17;8.65;;;2.30;;
77591;SDS011;66891;46.884;17.436;2024-02-26T09:59:45;8.80;;;2.70;;
77591;SDS011;66891;46.884;17.436;2024-02-26T10:02:15;8.13;;;2.37;;
77591;SDS011;66891;46.884;17.436;2024-02-26T10:04:44;6.55;;;2.00;;
77591;SDS011;66891;46.884;17.436;2024-02-26T10:07:17;9.30;;;2.53;;
77591;SDS011;66891;46.884;17.436;2024-02-26T10:09:45;7.10;;;2.40;;
77591;SDS011;66891;46.884;17.436;2024-02-26T10:12:12;7.97;;;2.50;;
77591;SDS011;66891;46.884;17.436;2024-02-26T10:14:39;7.73;;;2.33;;
77591;SDS011;66891;46.884;17.436;2024-02-26T10:17:06;6.78;;;2.00;;
77591;SDS011;66891;46.884;17.436;2024-02-26T10:19:36;10.60;;;2.40;;
77591;SDS011;66891;46.884;17.436;2024-02-26T10:22:06;8.88;;;2.10;;
77591;SDS011;66891;46.884;17.436;2024-02-26T10:24:33;8.10;;;2.13;;
77591;SDS011;66891;46.884;17.436;2024-02-26T10:27:02;9.70;;;2.00;;
77591;SDS011;66891;46.884;17.436;2024-02-26T10:29:29;8.10;;;1.80;;
77591;SDS011;66891;46.884;17.436;2024-02-26T10:31:56;7.45;;;2.10;;
77591;SDS011;66891;46.884;17.436;2024-02-26T10:34:23;8.43;;;1.95;;
77591;SDS011;66891;46.884;17.436;2024-02-26T10:36:52;8.35;;;2.20;;
77591;SDS011;66891;46.884;17.436;2024-02-26T10:39:21;8.00;;;1.90;;
77591;SDS011;66891;46.884;17.436;2024-02-26T10:41:49;6.85;;;1.75;;
77591;SDS011;66891;46.884;17.436;2024-02-26T10:44:16;8.60;;;2.17;;
77591;SDS011;66891;46.884;17.436;2024-02-26T10:46:46;8.93;;;2.20;;
77591;SDS011;66891;46.884;17.436;2024-02-26T10:49:14;7.30;;;1.55;;
77591;SDS011;66891;46.884;17.436;2024-02-26T10:51:43;6.40;;;1.80;;
77591;SDS011;66891;46.884;17.436;2024-02-26T10:54:12;6.53;;;1.63;;
77591;SDS011;66891;46.884;17.436;2024-02-26T10:56:39;5.97;;;1.50;;
77591;SDS011;66891;46.884;17.436;2024-02-26T10:59:08;7.55;;;1.90;;
77591;SDS011;66891;46.884;17.436;2024-02-26T11:01:36;6.32;;;1.83;;
77591;SDS011;66891;46.884;17.436;2024-02-26T11:04:08;8.10;;;2.10;;
77591;SDS011;66891;46.884;17.436;2024-02-26T11:06:36;7.07;;;1.70;;
77591;SDS011;66891;46.884;17.436;2024-02-26T11:09:03;7.20;;;1.88;;
77591;SDS011;66891;46.884;17.436;2024-02-26T11:11:32;6.68;;;1.50;;
77591;SDS011;66891;46.884;17.436;2024-02-26T11:14:02;6.07;;;1.73;;
77591;SDS011;66891;46.884;17.436;2024-02-26T11:16:30;5.73;;;1.23;;
77591;SDS011;66891;46.884;17.436;2024-02-26T11:18:57;5.88;;;1.65;;
77591;SDS011;66891;46.884;17.436;2024-02-26T11:21:25;7.47;;;1.50;;
77591;SDS011;66891;46.884;17.436;2024-02-26T11:24:05;5.95;;;1.00;;
77591;SDS011;66891;46.884;17.436;2024-02-26T11:26:35;6.85;;;1.60;;
77591;SDS011;66891;46.884;17.436;2024-02-26T11:29:03;7.23;;;1.60;;
77591;SDS011;66891;46.884;17.436;2024-02-26T11:31:32;6.40;;;1.60;;
77591;SDS011;66891;46.884;17.436;2024-02-26T11:34:03;10.43;;;1.95;;
77591;SDS011;66891;46.884;17.436;2024-02-26T11:36:30;6.25;;;1.23;;
77591;SDS011;66891;46.884;17.436;2024-02-26T11:39:07;7.53;;;2.08;;
77591;SDS011;66891;46.884;17.436;2024-02-26T11:41:37;5.83;;;1.27;;
77591;SDS011;66891;46.884;17.436;2024-02-26T11:44:05;7.43;;;1.58;;
77591;SDS011;66891;46.884;17.436;2024-02-26T11:46:38;6.00;;;1.40;;
77591;SDS011;66891;46.884;17.436;2024-02-26T11:51:50;4.88;;;0.90;;
77591;SDS011;66891;46.884;17.436;2024-02-26T11:57:00;4.68;;;0.95;;
77591;SDS011;66891;46.884;17.436;2024-02-26T11:59:37;5.57;;;0.82;;
77591;SDS011;66891;46.884;17.436;2024-02-26T12:02:04;7.18;;;1.60;;
77591;SDS011;66891;46.884;17.436;2024-02-26T12:04:31;5.63;;;0.88;;
77591;SDS011;66891;46.884;17.436;2024-02-26T12:07:00;6.30;;;1.20;;
77591;SDS011;66891;46.884;17.436;2024-02-26T12:09:34;4.78;;;0.85;;
77591;SDS011;66891;46.884;17.436;2024-02-26T12:12:05;5.82;;;0.90;;
77591;SDS011;66891;46.884;17.436;2024-02-26T12:14:34;4.53;;;0.60;;
77591;SDS011;66891;46.884;17.436;2024-02-26T12:17:01;5.78;;;1.65;;
77591;SDS011;66891;46.884;17.436;2024-02-26T12:19:35;4.83;;;0.80;;
77591;SDS011;66891;46.884;17.436;2024-02-26T12:22:08;8.23;;;1.00;;
77591;SDS011;66891;46.884;17.436;2024-02-26T12:24:35;7.65;;;1.80;;
77591;SDS011;66891;46.884;17.436;2024-02-26T12:27:02;6.38;;;1.50;;
77591;SDS011;66891;46.884;17.436;2024-02-26T12:29:31;7.68;;;1.58;;
77591;SDS011;66891;46.884;17.436;2024-02-26T12:31:59;8.00;;;0.93;;
77591;SDS011;66891;46.884;17.436;2024-02-26T12:34:26;6.88;;;0.90;;
77591;SDS011;66891;46.884;17.436;2024-02-26T12:36:53;7.38;;;1.40;;
77591;SDS011;66891;46.884;17.436;2024-02-26T12:39:20;4.45;;;0.50;;
77591;SDS011;66891;46.884;17.436;2024-02-26T12:41:48;5.25;;;0.75;;
77591;SDS011;66891;46.884;17.436;2024-02-26T12:44:16;5.90;;;0.70;;
77591;SDS011;66891;46.884;17.436;2024-02-26T12:46:44;5.68;;;0.90;;
77591;SDS011;66891;46.884;17.436;2024-02-26T12:49:14;6.47;;;1.00;;
77591;SDS011;66891;46.884;17.436;2024-02-26T12:51:42;6.68;;;1.40;;
77591;SDS011;66891;46.884;17.436;2024-02-26T12:54:10;5.47;;;1.00;;
77591;SDS011;66891;46.884;17.436;2024-02-26T12:56:37;3.87;;;0.50;;
77591;SDS011;66891;46.884;17.436;2024-02-26T12:59:04;5.63;;;0.80;;
77591;SDS011;66891;46.884;17.436;2024-02-26T13:01:31;4.95;;;1.10;;
77591;SDS011;66891;46.884;17.436;2024-02-26T13:04:00;8.13;;;1.30;;
77591;SDS011;66891;46.884;17.436;2024-02-26T13:06:33;6.35;;;1.35;;
77591;SDS011;66891;46.884;17.436;2024-02-26T13:09:02;5.13;;;0.60;;
77591;SDS011;66891;46.884;17.436;2024-02-26T13:11:29;9.93;;;1.20;;
77591;SDS011;66891;46.884;17.436;2024-02-26T13:13:57;6.70;;;1.63;;
77591;SDS011;66891;46.884;17.436;2024-02-26T13:16:24;6.35;;;0.75;;
77591;SDS011;66891;46.884;17.436;2024-02-26T13:18:52;6.30;;;1.50;;
77591;SDS011;66891;46.884;17.436;2024-02-26T13:21:20;5.93;;;1.53;;
77591;SDS011;66891;46.884;17.436;2024-02-26T13:23:52;6.55;;;1.15;;
77591;SDS011;66891;46.884;17.436;2024-02-26T13:26:21;4.18;;;0.80;;
77591;SDS011;66891;46.884;17.436;2024-02-26T13:28:58;4.25;;;0.80;;
77591;SDS011;66891;46.884;17.436;2024-02-26T13:31:25;5.90;;;1.15;;
77591;SDS011;66891;46.884;17.436;2024-02-26T13:33:52;5.87;;;0.87;;
77591;SDS011;66891;46.884;17.436;2024-02-26T13:36:23;5.25;;;0.80;;
77591;SDS011;66891;46.884;17.436;2024-02-26T13:38:54;6.00;;;1.55;;
77591;SDS011;66891;46.884;17.436;2024-02-26T13:41:21;5.00;;;0.85;;
77591;SDS011;66891;46.884;17.436;2024-02-26T13:43:48;3.65;;;0.60;;
77591;SDS011;66891;46.884;17.436;2024-02-26T13:46:15;5.17;;;0.60;;
77591;SDS011;66891;46.884;17.436;2024-02-26T13:48:43;3.97;;;0.70;;
77591;SDS011;66891;46.884;17.436;2024-02-26T13:51:11;4.68;;;0.70;;
77591;SDS011;66891;46.884;17.436;2024-02-26T13:53:39;5.93;;;0.80;;
77591;SDS011;66891;46.884;17.436;2024-02-26T13:56:06;5.70;;;0.60;;
77591;SDS011;66891;46.884;17.436;2024-02-26T13:58:34;4.07;;;0.53;;
77591;SDS011;66891;46.884;17.436;2024-02-26T14:01:01;5.57;;;0.80;;
77591;SDS011;66891;46.884;17.436;2024-02-26T14:03:30;4.50;;;0.70;;
77591;SDS011;66891;46.884;17.436;2024-02-26T14:05:57;6.13;;;0.65;;
77591;SDS011;66891;46.884;17.436;2024-02-26T14:08:25;5.18;;;0.60;;
77591;SDS011;66891;46.884;17.436;2024-02-26T14:10:53;4.40;;;0.57;;
77591;SDS011;66891;46.884;17.436;2024-02-26T14:13:20;4.63;;;0.63;;
77591;SDS011;66891;46.884;17.436;2024-02-26T14:15:47;4.78;;;0.70;;
77591;SDS011;66891;46.884;17.436;2024-02-26T14:18:14;4.72;;;0.77;;
77591;SDS011;66891;46.884;17.436;2024-02-26T14:20:41;5.70;;;0.90;;
77591;SDS011;66891;46.884;17.436;2024-02-26T14:23:09;9.20;;;2.80;;
77591;SDS011;66891;46.884;17.436;2024-02-26T14:25:36;6.85;;;1.58;;
77591;SDS011;66891;46.884;17.436;2024-02-26T14:28:05;8.98;;;1.25;;
77591;SDS011;66891;46.884;17.436;2024-02-26T14:30:32;7.75;;;1.95;;
77591;SDS011;66891;46.884;17.436;2024-02-26T14:33:00;6.88;;;1.48;;
77591;SDS011;66891;46.884;17.436;2024-02-26T14:35:27;7.00;;;2.00;;